Flight Track Log - Related Links

Times and Time Zones

All times are in EDT time to prevent confusion due to time zone crossing. See the ASQ4577 flight status page for this flight to view local times or setup timezone preferences in your user account.

Time Position Orientation Groundspeed Altitude Reporting Facility
EDT Latitude Longitude Course Direction KTS MPH feet Rate Location/Type
Sun 05:02:22 PM 41.9167 -87.9167 77° East 182 209 2,900  Level Chicago TRACON
Sun 05:03:28 PM 41.8833 -87.8500 124° Southeast 232 267 4,400 698 Climbing Chicago TRACON
Sun 05:05:00 PM 42.0468 -87.4026 83° East  Level FlightAware Approximate
Sun 05:05:14 PM 41.9158 -87.6803 76° East 263 303 4,900  Level Chicago Center
Sun 05:06:00 PM 42.0641 -87.2755 78° East  Level FlightAware Approximate
Sun 05:06:16 PM 41.9486 -87.5892 64° Northeast 271 312 6,500  Level Chicago Center
Sun 05:07:00 PM 42.0835 -87.1488 77° East  Level FlightAware Approximate
Sun 05:07:18 PM 41.9789 -87.4928 67° East 279 321 8,300  Level Chicago Center
Sun 05:08:20 PM 42.0097 -87.3919 68° East 290 334 10,100 1,645 Climbing Chicago Center
Sun 05:09:22 PM 42.0436 -87.2839 67° East 311 358 11,700 1,742 Climbing Chicago Center
Sun 05:10:24 PM 42.0856 -87.1522 67° East 318 366 13,700 1,500 Climbing Chicago Center
Sun 05:11:26 PM 42.1147 -87.0292 72° East 343 395 14,800 1,065 Climbing Chicago Center
Sun 05:12:28 PM 42.1178 -86.8950 88° East 358 412 15,900 1,065 Climbing Chicago Center
Sun 05:13:30 PM 42.1231 -86.7542 87° East 374 430 17,000 1,016 Climbing Chicago Center
Sun 05:14:32 PM 42.1281 -86.6169 87° East 387 445 18,000 1,171 Climbing Chicago Center
Sun 05:15:33 PM 42.1342 -86.4392 87° East 395 455 19,400 1,220 Climbing Chicago Center
Sun 05:16:35 PM 42.1392 -86.2881 87° East 402 463 20,500 1,065 Climbing Chicago Center
Sun 05:17:37 PM 42.1439 -86.1347 88° East 409 471 21,600 1,016 Climbing Chicago Center
Sun 05:18:39 PM 42.1411 -85.9789 91° East 414 476 22,600 677 Climbing Chicago Center
Sun 05:19:41 PM 42.1353 -85.8039 93° East 421 484 23,000 484 Climbing Chicago Center
Sun 05:20:43 PM 42.1303 -85.6392 92° East 436 502 23,600 774 Climbing Chicago Center
Sun 05:21:45 PM 42.1253 -85.4750 92° East 441 507 24,600 1,024 Climbing Chicago Center
Sun 05:22:46 PM 42.1219 -85.3131 92° East 436 502 25,700 1,008 Climbing Chicago Center
Sun 05:23:44 PM 42.1208 -85.1608 91° East 427 491 26,600 1,017 Climbing Cleveland Center
Sun 05:24:44 PM 42.1144 -85.0036 93° East 427 491 27,700 1,050 Climbing Cleveland Center
Sun 05:25:44 PM 42.1100 -84.8464 92° East 422 486 28,700 650 Climbing Cleveland Center
Sun 05:26:44 PM 42.1011 -84.6919 94° East 422 486 29,000 99 Climbing Cleveland Center
Sun 05:27:45 PM 42.0964 -84.5292 92° East 422 486 28,900 -500 Descending Cleveland Center
Sun 05:28:44 PM 42.0875 -84.3581 94° East 441 507 28,000 -555 Descending Cleveland Center
Sun 05:29:44 PM 42.0769 -84.1725 94° East 451 519 27,800 -550 Descending Cleveland Center
Sun 05:30:44 PM 42.0694 -84.0042 93° East 451 519 26,900 -900 Descending Cleveland Center
Sun 05:31:44 PM 42.0619 -83.8333 93° East 451 519 26,000 -950 Descending Cleveland Center
Sun 05:32:44 PM 42.0544 -83.6539 93° East 464 534 25,000 -950 Descending Cleveland Center
Sun 05:33:44 PM 42.0481 -83.4969 93° East 476 548 24,100 -500 Descending Cleveland Center
Sun 05:34:44 PM 42.0336 -83.3228 96° East 471 542 24,000 -350 Descending Cleveland Center
Sun 05:35:44 PM 42.0147 -83.1403 98° East 462 532 23,400 -1,350 Descending Cleveland Center
Sun 05:36:44 PM 41.9994 -82.9861 98° East 462 532 21,300 -2,200 Descending Cleveland Center
Sun 05:37:44 PM 41.9839 -82.8236 97° East 455 524 19,000 -2,350 Descending Cleveland Center
Sun 05:38:44 PM 41.9700 -82.6722 97° East 432 497 16,600 -2,431 Descending Cleveland Center
Sun 05:39:40 PM 41.9456 -82.5233 102° East 386 444 14,300 -2,157 Descending Cleveland Center
Sun 05:41:00 PM 41.9053 -82.3659 114° Southeast  Level FlightAware Approximate
Sun 05:41:42 PM 41.8664 -82.2644 114° Southeast 364 419 10,200  Level Cleveland Center
Sun 05:42:42 PM 41.8178 -82.1517 120° Southeast 357 411 10,100 -98 Descending Cleveland Center
Sun 05:43:44 PM 41.7314 -82.0744 146° Southeast 347 399 10,000 -49 Descending Cleveland Center
Sun 05:44:44 PM 41.6447 -82.0031 148° Southeast 367 422 10,000 -142 Level Cleveland Center
Sun 05:45:51 PM 41.5622 -81.9292 146° Southeast 288 331 9,700 -900 Descending Cleveland Center
Sun 05:46:44 PM 41.5022 -81.8944 157° South 290 334 8,200 -1,574 Descending Cleveland Center
Sun 05:47:53 PM 41.4450 -81.9681 224° Southwest 236 272 6,500 -1,659 Descending Cleveland Center
Sun 05:48:47 PM 41.3983 -82.0308 225° Southwest 263 303 4,800 -1,889 Descending Cleveland Center

Login

Don't have an account? Register now (free) for customized features, flight alerts, and more!